createdAt,value
2018-09-19T10:12:31.583Z,39.92
2018-09-19T10:14:59.770Z,40.14
2018-09-19T10:17:27.815Z,39.62
2018-09-19T10:19:55.892Z,39.12
2018-09-19T10:22:23.935Z,39.75
2018-09-19T10:24:52.029Z,38.46
2018-09-19T10:27:20.080Z,38.47
2018-09-19T10:29:48.216Z,38.69
2018-09-19T10:32:16.284Z,38.09
2018-09-19T10:34:44.342Z,37.64
2018-09-19T10:37:12.391Z,37.04
2018-09-19T10:39:40.482Z,36.70
2018-09-19T10:42:09.068Z,37.36
2018-09-19T10:44:37.149Z,36.68
2018-09-19T10:47:05.224Z,36.02
2018-09-19T10:49:33.320Z,36.40
2018-09-19T10:52:01.355Z,35.33
2018-09-19T10:54:29.442Z,35.92
2018-09-19T10:56:57.653Z,35.96
2018-09-19T10:59:25.665Z,34.87
2018-09-19T11:01:53.740Z,33.67
2018-09-19T11:04:21.833Z,34.51
2018-09-19T11:06:49.918Z,33.61
2018-09-19T11:09:18.016Z,33.92
2018-09-19T11:11:46.092Z,34.06
2018-09-19T11:14:14.167Z,33.36
2018-09-19T11:16:42.236Z,32.65
2018-09-19T11:19:10.304Z,32.79
2018-09-19T11:21:38.402Z,32.75
2018-09-19T11:24:06.986Z,32.73
2018-09-19T11:26:35.140Z,32.50
2018-09-19T11:29:03.121Z,33.48
2018-09-19T11:31:31.212Z,32.17
2018-09-19T11:33:59.282Z,32.01
2018-09-19T11:36:27.395Z,31.68
2018-09-19T11:38:55.468Z,32.76
2018-09-19T11:41:23.594Z,32.66
2018-09-19T11:43:51.688Z,31.56
2018-09-19T11:46:19.731Z,32.37
2018-09-19T11:48:47.801Z,30.63
2018-09-19T11:51:15.852Z,30.81
2018-09-19T11:53:43.958Z,28.95
2018-09-19T11:56:11.999Z,30.83
2018-09-19T11:58:40.126Z,31.47
2018-09-19T12:01:08.178Z,31.06
2018-09-19T12:03:36.248Z,30.40
2018-09-19T12:06:04.324Z,31.05
2018-09-19T12:08:32.416Z,31.08
2018-09-19T12:11:00.566Z,30.89
2018-09-19T12:13:28.639Z,29.80
2018-09-19T12:15:56.771Z,30.65
2018-09-19T12:18:24.853Z,29.80
2018-09-19T12:20:52.919Z,29.84
2018-09-19T12:23:20.995Z,30.02
2018-09-19T12:25:49.041Z,29.19
2018-09-19T12:28:17.103Z,30.23
2018-09-19T12:30:45.234Z,28.90
2018-09-19T12:33:13.350Z,29.82
2018-09-19T12:35:42.522Z,29.18
2018-09-19T12:38:10.720Z,28.45
2018-09-19T12:40:38.773Z,28.68
2018-09-19T12:43:06.910Z,29.57
2018-09-19T12:45:35.010Z,29.45
2018-09-19T12:48:03.171Z,28.43
2018-09-19T12:50:31.280Z,28.88
2018-09-19T12:52:59.455Z,28.82
2018-09-19T12:55:27.540Z,28.94
2018-09-19T12:57:55.704Z,28.64
2018-09-19T13:00:23.768Z,28.95
2018-09-19T13:02:51.869Z,28.22
2018-09-19T13:05:19.986Z,27.85
2018-09-19T13:07:48.064Z,28.92
2018-09-19T13:10:16.171Z,28.76
2018-09-19T13:12:44.240Z,28.33
2018-09-19T13:15:12.363Z,28.88
2018-09-19T13:17:40.439Z,28.67
2018-09-19T13:20:08.487Z,28.09
2018-09-19T13:22:36.587Z,28.57
2018-09-19T13:25:04.677Z,28.09
2018-09-19T13:27:32.805Z,28.71
2018-09-19T13:30:00.848Z,28.52
2018-09-19T13:32:28.904Z,28.05
2018-09-19T13:34:56.973Z,27.63
2018-09-19T13:37:25.035Z,28.43
2018-09-19T13:39:53.101Z,28.13
2018-09-19T13:42:21.167Z,28.84
2018-09-19T13:44:49.233Z,28.08
2018-09-19T13:47:17.296Z,27.97
2018-09-19T13:49:49.056Z,28.29
2018-09-19T13:52:17.207Z,28.36
2018-09-19T13:54:46.323Z,28.70
2018-09-19T13:57:14.388Z,29.44
2018-09-19T13:59:42.464Z,29.08
2018-09-19T14:02:10.571Z,30.36
2018-09-19T14:04:38.629Z,30.03
2018-09-19T14:07:07.148Z,29.56
2018-09-19T14:09:35.229Z,30.01
2018-09-19T14:12:03.335Z,30.62
2018-09-19T14:14:31.404Z,30.33
2018-09-19T14:16:59.492Z,30.24
2018-09-19T14:19:27.544Z,30.33
2018-09-19T14:21:55.737Z,30.97
2018-09-19T14:24:23.764Z,30.58
2018-09-19T14:26:51.811Z,30.56
2018-09-19T14:29:19.876Z,30.76
2018-09-19T14:31:47.971Z,31.21
2018-09-19T14:34:16.011Z,31.13
2018-09-19T14:36:44.085Z,30.92
2018-09-19T14:39:12.196Z,30.51
2018-09-19T14:41:40.308Z,31.66
2018-09-19T14:44:08.368Z,31.52
2018-09-19T14:46:36.456Z,31.62
2018-09-19T14:49:04.565Z,31.42
2018-09-19T14:51:32.616Z,31.62
2018-09-19T14:54:00.712Z,31.89
2018-09-19T14:56:28.776Z,32.56
2018-09-19T14:58:56.872Z,31.81
2018-09-19T15:01:24.928Z,31.67
2018-09-19T15:03:52.985Z,32.30
2018-09-19T15:06:21.083Z,32.49
2018-09-19T15:08:49.132Z,32.92
2018-09-19T15:11:17.195Z,32.65
2018-09-19T15:13:45.261Z,33.41
2018-09-19T15:16:13.340Z,33.70
2018-09-19T15:18:41.428Z,33.49
2018-09-19T15:21:09.504Z,34.09
2018-09-19T15:23:37.551Z,33.08
2018-09-19T15:26:05.618Z,33.56
2018-09-19T15:28:33.960Z,34.03
2018-09-19T15:31:01.957Z,34.55
2018-09-19T15:33:30.012Z,34.30
2018-09-19T15:35:58.078Z,35.00
2018-09-19T15:38:26.216Z,34.13
2018-09-19T15:40:54.216Z,35.07
2018-09-19T15:43:22.311Z,35.26
2018-09-19T15:45:50.364Z,35.06
2018-09-19T15:48:18.457Z,34.80
2018-09-19T15:50:46.528Z,34.98
2018-09-19T15:53:14.576Z,36.01
2018-09-19T15:55:42.694Z,35.70
2018-09-19T15:58:10.744Z,36.33
2018-09-19T16:00:38.787Z,36.55
2018-09-19T16:03:06.861Z,36.54
2018-09-19T16:05:34.911Z,36.59
2018-09-19T16:08:02.960Z,36.01
2018-09-19T16:10:31.250Z,36.39
2018-09-19T16:12:59.358Z,36.99
2018-09-19T16:15:27.464Z,36.31
2018-09-19T16:17:55.573Z,36.92
2018-09-19T16:20:23.770Z,37.34
2018-09-19T16:22:51.896Z,37.14
2018-09-19T16:25:19.948Z,37.13
2018-09-19T16:27:48.085Z,37.29
2018-09-19T16:30:16.138Z,37.00
2018-09-19T16:32:44.200Z,37.96
2018-09-19T16:35:12.264Z,37.13
2018-09-19T16:37:40.324Z,37.13
2018-09-19T16:40:08.365Z,37.46
2018-09-19T16:42:36.437Z,37.39
2018-09-19T16:45:04.759Z,38.20
2018-09-19T16:47:32.825Z,38.37
2018-09-19T16:50:00.892Z,37.64
2018-09-19T16:52:28.955Z,37.67
2018-09-19T16:54:56.999Z,38.55
2018-09-19T16:57:25.068Z,38.41
2018-09-19T16:59:53.120Z,37.65
2018-09-19T17:02:21.185Z,38.53
2018-09-19T17:04:49.243Z,37.72
2018-09-19T17:07:17.320Z,37.85
2018-09-19T17:09:45.372Z,38.76
2018-09-19T17:12:13.416Z,38.54
2018-09-19T17:14:41.456Z,38.39
2018-09-19T17:17:09.588Z,38.83
2018-09-19T17:19:37.661Z,38.31
2018-09-19T17:22:05.720Z,38.88
2018-09-19T17:24:33.763Z,39.22
2018-09-19T17:27:01.824Z,39.34
2018-09-19T17:29:29.937Z,39.15
2018-09-19T17:31:58.032Z,38.99
2018-09-19T17:34:26.084Z,39.64
2018-09-19T17:36:54.132Z,39.07
2018-09-19T17:39:22.210Z,39.50
2018-09-19T17:41:50.291Z,39.89
2018-09-19T17:44:18.367Z,39.31
2018-09-19T17:46:46.432Z,40.04
2018-09-19T17:49:14.464Z,39.73
2018-09-19T17:51:42.607Z,39.96
2018-09-19T17:54:10.659Z,40.96
2018-09-19T17:56:38.723Z,40.35
2018-09-19T17:59:06.765Z,41.00
2018-09-19T18:01:34.816Z,41.42
2018-09-19T18:04:03.448Z,41.59
2018-09-19T18:06:31.503Z,41.74
2018-09-19T18:08:59.570Z,40.94
2018-09-19T18:11:27.653Z,41.15
2018-09-19T18:13:55.709Z,42.29
2018-09-19T18:16:23.751Z,42.11
2018-09-19T18:18:51.808Z,42.42
2018-09-19T18:21:19.871Z,41.93
2018-09-19T18:23:47.896Z,41.89
2018-09-19T18:26:15.930Z,41.89
2018-09-19T18:28:44.039Z,43.16
2018-09-19T18:31:12.103Z,43.55
2018-09-19T18:33:40.179Z,43.47
2018-09-19T18:36:08.264Z,43.20
2018-09-19T18:38:36.379Z,43.01
2018-09-19T18:41:04.389Z,43.46
2018-09-19T18:43:32.448Z,43.07
2018-09-19T18:46:00.484Z,42.37
2018-09-19T18:48:28.535Z,42.91
2018-09-19T18:50:56.585Z,43.11
2018-09-19T18:53:24.664Z,42.65
2018-09-19T18:55:52.691Z,42.72
2018-09-19T18:58:20.777Z,42.54
2018-09-19T19:00:48.840Z,42.84
2018-09-19T19:03:16.885Z,43.08
2018-09-19T19:05:44.967Z,43.52
2018-09-19T19:08:13.103Z,43.58
2018-09-19T19:10:41.233Z,43.55
2018-09-19T19:13:09.285Z,43.66
2018-09-19T19:15:37.354Z,43.89
2018-09-19T19:18:05.482Z,43.22
2018-09-19T19:20:33.569Z,43.32
2018-09-19T19:23:01.635Z,43.67
2018-09-19T19:25:29.756Z,43.74
2018-09-19T19:27:57.822Z,43.72
2018-09-19T19:30:27.255Z,44.35
2018-09-19T19:32:55.332Z,44.55
2018-09-19T19:35:23.416Z,45.53
2018-09-19T19:37:51.538Z,45.43
2018-09-19T19:40:19.559Z,45.20
2018-09-19T19:42:47.617Z,45.12
2018-09-19T19:45:15.672Z,45.73
2018-09-19T19:47:43.751Z,45.38
2018-09-19T19:50:11.805Z,46.16
2018-09-19T19:52:39.842Z,45.78
2018-09-19T19:55:07.899Z,46.82
2018-09-19T19:57:35.948Z,46.58
2018-09-19T20:00:04.021Z,46.08
2018-09-19T20:02:32.092Z,46.70
2018-09-19T20:05:00.168Z,46.77
2018-09-19T20:07:28.254Z,46.78
2018-09-19T20:09:56.312Z,46.89
2018-09-19T20:12:24.395Z,46.79
2018-09-19T20:14:52.483Z,45.88
2018-09-19T20:17:20.546Z,45.69
2018-09-19T20:19:48.616Z,46.39
2018-09-19T20:22:16.670Z,46.50
2018-09-19T20:24:44.720Z,46.59
2018-09-19T20:27:12.777Z,46.46
2018-09-19T20:29:40.908Z,46.50
2018-09-19T20:32:08.958Z,46.90
2018-09-19T20:34:37.016Z,46.59
2018-09-19T20:37:05.068Z,46.94
2018-09-19T20:39:33.124Z,46.59
2018-09-19T20:42:01.153Z,46.58
2018-09-19T20:44:29.217Z,46.90
2018-09-19T20:46:57.361Z,47.72
2018-09-19T20:49:25.402Z,47.81
2018-09-19T20:51:53.496Z,47.91
2018-09-19T20:54:21.612Z,48.85
2018-09-19T20:56:49.668Z,48.34
2018-09-19T20:59:18.037Z,48.61
2018-09-19T21:01:46.116Z,48.62
2018-09-19T21:04:14.315Z,49.22
2018-09-19T21:06:42.348Z,49.27
2018-09-19T21:09:10.419Z,48.56
2018-09-19T21:11:38.473Z,48.33
2018-09-19T21:14:06.572Z,48.52
2018-09-19T21:16:34.628Z,48.56
2018-09-19T21:19:02.699Z,48.61
2018-09-19T21:21:30.784Z,48.87
2018-09-19T21:23:58.811Z,48.53
2018-09-19T21:26:26.920Z,48.41
2018-09-19T21:28:54.981Z,48.31
2018-09-19T21:31:23.077Z,48.32
2018-09-19T21:33:51.128Z,48.12
2018-09-19T21:36:19.291Z,48.49
2018-09-19T21:38:47.455Z,47.76
2018-09-19T21:41:15.544Z,48.54
2018-09-19T21:43:43.589Z,47.76
2018-09-19T21:46:11.683Z,47.91
2018-09-19T21:48:39.767Z,47.63
2018-09-19T21:51:07.812Z,47.63
2018-09-19T21:53:35.883Z,47.89
2018-09-19T21:56:04.155Z,48.11
2018-09-19T21:58:32.196Z,47.37
2018-09-19T22:01:05.593Z,47.73
2018-09-19T22:03:33.699Z,48.17
2018-09-19T22:06:01.770Z,48.13
2018-09-19T22:08:29.818Z,47.92
2018-09-19T22:10:58.414Z,48.07
2018-09-19T22:13:26.474Z,47.78
2018-09-19T22:15:54.592Z,48.18
2018-09-19T22:18:22.986Z,48.50
2018-09-19T22:20:51.109Z,48.15
2018-09-19T22:23:19.177Z,48.49
2018-09-19T22:25:47.288Z,47.76
2018-09-19T22:28:15.417Z,47.77
2018-09-19T22:30:43.512Z,47.80
2018-09-19T22:33:11.571Z,47.57
2018-09-19T22:35:39.725Z,47.77
2018-09-19T22:38:07.777Z,47.57
2018-09-19T22:40:35.844Z,47.82
2018-09-19T22:43:03.934Z,48.03
2018-09-19T22:45:32.023Z,47.28
2018-09-19T22:48:00.076Z,47.93
2018-09-19T22:50:28.124Z,47.51
2018-09-19T22:52:56.219Z,48.02
2018-09-19T22:55:24.281Z,48.15
2018-09-19T22:57:52.339Z,47.89
2018-09-19T23:00:20.429Z,47.55
2018-09-19T23:02:48.484Z,48.18
2018-09-19T23:05:16.575Z,47.45
2018-09-19T23:07:44.649Z,48.19
2018-09-19T23:10:12.720Z,47.65
2018-09-19T23:12:40.780Z,47.33
2018-09-19T23:15:08.859Z,47.96
2018-09-19T23:17:36.919Z,48.33
2018-09-19T23:20:06.109Z,48.72
2018-09-19T23:22:34.220Z,47.78
2018-09-19T23:25:02.306Z,48.56
2018-09-19T23:27:30.384Z,48.29
2018-09-19T23:29:58.493Z,47.54
2018-09-19T23:32:26.571Z,48.13
2018-09-19T23:34:54.663Z,48.76
2018-09-19T23:37:22.740Z,48.96
2018-09-19T23:39:50.798Z,48.50
2018-09-19T23:42:18.867Z,48.42
2018-09-19T23:44:46.913Z,48.53
2018-09-19T23:47:15.024Z,48.33
2018-09-19T23:49:43.085Z,48.60
2018-09-19T23:52:11.156Z,48.59
2018-09-19T23:54:39.220Z,48.42
2018-09-19T23:57:07.276Z,48.59
2018-09-19T23:59:35.365Z,49.13
